sensor_id;sensor_type;location;lat;lon;timestamp;temperature;humidity
52919;DHT22;38793;52.690;6.812;2024-01-07T00:01:01;1.20;99.90
52919;DHT22;38793;52.690;6.812;2024-01-07T00:03:27;1.20;99.90
52919;DHT22;38793;52.690;6.812;2024-01-07T00:05:53;1.20;99.90
52919;DHT22;38793;52.690;6.812;2024-01-07T00:08:19;1.20;99.90
52919;DHT22;38793;52.690;6.812;2024-01-07T00:10:44;1.20;99.90
52919;DHT22;38793;52.690;6.812;2024-01-07T00:13:10;1.20;99.90
52919;DHT22;38793;52.690;6.812;2024-01-07T00:15:35;1.20;99.90
52919;DHT22;38793;52.690;6.812;2024-01-07T00:18:01;1.20;99.90
52919;DHT22;38793;52.690;6.812;2024-01-07T00:20:27;1.20;99.90
52919;DHT22;38793;52.690;6.812;2024-01-07T00:22:52;1.20;99.90
52919;DHT22;38793;52.690;6.812;2024-01-07T00:25:18;1.20;99.90
52919;DHT22;38793;52.690;6.812;2024-01-07T00:27:44;1.20;99.90
52919;DHT22;38793;52.690;6.812;2024-01-07T00:30:10;1.10;99.90
52919;DHT22;38793;52.690;6.812;2024-01-07T00:32:36;1.10;99.90
52919;DHT22;38793;52.690;6.812;2024-01-07T00:35:02;1.10;99.90
52919;DHT22;38793;52.690;6.812;2024-01-07T00:37:28;1.10;99.90
52919;DHT22;38793;52.690;6.812;2024-01-07T00:39:53;1.10;99.90
52919;DHT22;38793;52.690;6.812;2024-01-07T00:42:19;1.10;99.90
52919;DHT22;38793;52.690;6.812;2024-01-07T00:44:45;1.10;99.90
52919;DHT22;38793;52.690;6.812;2024-01-07T00:47:10;1.10;99.90
52919;DHT22;38793;52.690;6.812;2024-01-07T00:49:36;1.10;99.90
52919;DHT22;38793;52.690;6.812;2024-01-07T00:52:01;1.10;99.90
52919;DHT22;38793;52.690;6.812;2024-01-07T00:54:27;1.10;99.90
52919;DHT22;38793;52.690;6.812;2024-01-07T00:56:53;1.10;99.90
52919;DHT22;38793;52.690;6.812;2024-01-07T00:59:18;1.10;99.90
52919;DHT22;38793;52.690;6.812;2024-01-07T01:01:44;1.00;99.90
52919;DHT22;38793;52.690;6.812;2024-01-07T01:04:09;1.00;99.90
52919;DHT22;38793;52.690;6.812;2024-01-07T01:06:35;1.00;99.90
52919;DHT22;38793;52.690;6.812;2024-01-07T01:09:00;1.00;99.90
52919;DHT22;38793;52.690;6.812;2024-01-07T01:11:26;1.00;99.90
52919;DHT22;38793;52.690;6.812;2024-01-07T01:13:51;1.00;99.90
52919;DHT22;38793;52.690;6.812;2024-01-07T01:16:17;1.00;99.90
52919;DHT22;38793;52.690;6.812;2024-01-07T01:18:43;1.00;99.90
52919;DHT22;38793;52.690;6.812;2024-01-07T01:21:09;1.00;99.90
52919;DHT22;38793;52.690;6.812;2024-01-07T01:23:35;1.00;99.90
52919;DHT22;38793;52.690;6.812;2024-01-07T01:26:00;1.00;99.90
52919;DHT22;38793;52.690;6.812;2024-01-07T01:28:26;1.00;99.90
52919;DHT22;38793;52.690;6.812;2024-01-07T01:30:52;1.00;99.90
52919;DHT22;38793;52.690;6.812;2024-01-07T01:33:17;1.00;99.90
52919;DHT22;38793;52.690;6.812;2024-01-07T01:35:43;1.00;99.90
52919;DHT22;38793;52.690;6.812;2024-01-07T01:38:09;1.00;99.90
52919;DHT22;38793;52.690;6.812;2024-01-07T01:40:34;1.00;99.90
52919;DHT22;38793;52.690;6.812;2024-01-07T01:43:00;0.90;99.90
52919;DHT22;38793;52.690;6.812;2024-01-07T01:45:26;0.90;99.90
52919;DHT22;38793;52.690;6.812;2024-01-07T01:47:51;1.00;99.90
52919;DHT22;38793;52.690;6.812;2024-01-07T01:50:17;0.90;99.90
52919;DHT22;38793;52.690;6.812;2024-01-07T01:52:45;1.00;99.90
52919;DHT22;38793;52.690;6.812;2024-01-07T01:55:11;1.00;99.90
52919;DHT22;38793;52.690;6.812;2024-01-07T01:57:39;1.00;99.90
52919;DHT22;38793;52.690;6.812;2024-01-07T02:00:06;1.00;99.90
52919;DHT22;38793;52.690;6.812;2024-01-07T02:02:32;1.00;99.90
52919;DHT22;38793;52.690;6.812;2024-01-07T02:05:03;0.90;99.90
52919;DHT22;38793;52.690;6.812;2024-01-07T02:07:30;1.00;99.90
52919;DHT22;38793;52.690;6.812;2024-01-07T02:09:56;0.90;99.90
52919;DHT22;38793;52.690;6.812;2024-01-07T02:12:21;0.90;99.90
52919;DHT22;38793;52.690;6.812;2024-01-07T02:14:47;0.90;99.90
52919;DHT22;38793;52.690;6.812;2024-01-07T02:17:14;0.90;99.90
52919;DHT22;38793;52.690;6.812;2024-01-07T02:19:40;0.90;99.90
52919;DHT22;38793;52.690;6.812;2024-01-07T02:22:05;0.90;99.90
52919;DHT22;38793;52.690;6.812;2024-01-07T02:24:31;0.90;99.90
52919;DHT22;38793;52.690;6.812;2024-01-07T02:26:57;1.00;99.90
52919;DHT22;38793;52.690;6.812;2024-01-07T02:29:27;0.90;99.90
52919;DHT22;38793;52.690;6.812;2024-01-07T02:31:53;1.00;99.90
52919;DHT22;38793;52.690;6.812;2024-01-07T02:34:19;1.00;99.90
52919;DHT22;38793;52.690;6.812;2024-01-07T02:36:44;1.00;99.90
52919;DHT22;38793;52.690;6.812;2024-01-07T02:39:10;1.00;99.90
52919;DHT22;38793;52.690;6.812;2024-01-07T02:41:35;1.00;99.90
52919;DHT22;38793;52.690;6.812;2024-01-07T02:44:01;1.00;99.90
52919;DHT22;38793;52.690;6.812;2024-01-07T02:46:27;1.00;99.90
52919;DHT22;38793;52.690;6.812;2024-01-07T02:48:52;1.00;99.90
52919;DHT22;38793;52.690;6.812;2024-01-07T02:51:18;1.00;99.90
52919;DHT22;38793;52.690;6.812;2024-01-07T02:53:44;0.90;99.90
52919;DHT22;38793;52.690;6.812;2024-01-07T02:56:10;0.90;99.90
52919;DHT22;38793;52.690;6.812;2024-01-07T02:58:36;0.90;99.90
52919;DHT22;38793;52.690;6.812;2024-01-07T03:01:01;0.90;99.90
52919;DHT22;38793;52.690;6.812;2024-01-07T03:03:27;0.90;99.90
52919;DHT22;38793;52.690;6.812;2024-01-07T03:05:53;0.90;99.90
52919;DHT22;38793;52.690;6.812;2024-01-07T03:08:18;0.90;99.90
52919;DHT22;38793;52.690;6.812;2024-01-07T03:10:44;0.90;99.90
52919;DHT22;38793;52.690;6.812;2024-01-07T03:13:10;0.80;99.90
52919;DHT22;38793;52.690;6.812;2024-01-07T03:15:36;0.90;99.90
52919;DHT22;38793;52.690;6.812;2024-01-07T03:18:03;0.80;99.90
52919;DHT22;38793;52.690;6.812;2024-01-07T03:20:29;0.80;99.90
52919;DHT22;38793;52.690;6.812;2024-01-07T03:22:54;0.90;99.90
52919;DHT22;38793;52.690;6.812;2024-01-07T03:25:20;0.90;99.90
52919;DHT22;38793;52.690;6.812;2024-01-07T03:27:46;0.90;99.90
52919;DHT22;38793;52.690;6.812;2024-01-07T03:30:11;0.90;99.90
52919;DHT22;38793;52.690;6.812;2024-01-07T03:32:37;0.80;99.90
52919;DHT22;38793;52.690;6.812;2024-01-07T03:35:03;0.80;99.90
52919;DHT22;38793;52.690;6.812;2024-01-07T03:37:29;0.80;99.90
52919;DHT22;38793;52.690;6.812;2024-01-07T03:39:54;0.90;99.90
52919;DHT22;38793;52.690;6.812;2024-01-07T03:42:20;0.80;99.90
52919;DHT22;38793;52.690;6.812;2024-01-07T03:44:46;0.80;99.90
52919;DHT22;38793;52.690;6.812;2024-01-07T03:47:11;0.80;99.90
52919;DHT22;38793;52.690;6.812;2024-01-07T03:49:37;0.80;99.90
52919;DHT22;38793;52.690;6.812;2024-01-07T03:52:06;0.80;99.90
52919;DHT22;38793;52.690;6.812;2024-01-07T03:54:32;0.80;99.90
52919;DHT22;38793;52.690;6.812;2024-01-07T03:56:58;0.80;99.90
52919;DHT22;38793;52.690;6.812;2024-01-07T03:59:23;0.80;99.90
52919;DHT22;38793;52.690;6.812;2024-01-07T04:01:52;0.80;99.90
52919;DHT22;38793;52.690;6.812;2024-01-07T04:04:18;0.80;99.90
52919;DHT22;38793;52.690;6.812;2024-01-07T04:06:44;0.80;99.90
52919;DHT22;38793;52.690;6.812;2024-01-07T04:09:09;0.80;99.90
52919;DHT22;38793;52.690;6.812;2024-01-07T04:11:42;0.70;99.90
52919;DHT22;38793;52.690;6.812;2024-01-07T04:14:08;0.70;99.90
52919;DHT22;38793;52.690;6.812;2024-01-07T04:16:34;0.70;99.90
52919;DHT22;38793;52.690;6.812;2024-01-07T04:19:00;0.70;99.90
52919;DHT22;38793;52.690;6.812;2024-01-07T04:21:26;0.70;99.90
52919;DHT22;38793;52.690;6.812;2024-01-07T04:23:51;0.70;99.90
52919;DHT22;38793;52.690;6.812;2024-01-07T04:26:17;0.60;99.90
52919;DHT22;38793;52.690;6.812;2024-01-07T04:28:43;0.70;99.90
52919;DHT22;38793;52.690;6.812;2024-01-07T04:31:09;0.70;99.90
52919;DHT22;38793;52.690;6.812;2024-01-07T04:33:34;0.60;99.90
52919;DHT22;38793;52.690;6.812;2024-01-07T04:36:00;0.60;99.90
52919;DHT22;38793;52.690;6.812;2024-01-07T04:38:29;0.60;99.90
52919;DHT22;38793;52.690;6.812;2024-01-07T04:40:55;0.60;99.90
52919;DHT22;38793;52.690;6.812;2024-01-07T04:43:20;0.60;99.90
52919;DHT22;38793;52.690;6.812;2024-01-07T04:45:46;0.60;99.90
52919;DHT22;38793;52.690;6.812;2024-01-07T04:48:13;0.60;99.90
52919;DHT22;38793;52.690;6.812;2024-01-07T04:50:40;0.60;99.90
52919;DHT22;38793;52.690;6.812;2024-01-07T04:53:07;0.60;99.90
52919;DHT22;38793;52.690;6.812;2024-01-07T04:55:33;0.60;99.90
52919;DHT22;38793;52.690;6.812;2024-01-07T04:57:59;0.50;99.90
52919;DHT22;38793;52.690;6.812;2024-01-07T05:00:25;0.50;99.90
52919;DHT22;38793;52.690;6.812;2024-01-07T05:02:50;0.50;99.90
52919;DHT22;38793;52.690;6.812;2024-01-07T05:05:16;0.50;99.90
52919;DHT22;38793;52.690;6.812;2024-01-07T05:07:42;0.50;99.90
52919;DHT22;38793;52.690;6.812;2024-01-07T05:10:08;0.50;99.90
52919;DHT22;38793;52.690;6.812;2024-01-07T05:12:33;0.50;99.90
52919;DHT22;38793;52.690;6.812;2024-01-07T05:14:59;0.50;99.90
52919;DHT22;38793;52.690;6.812;2024-01-07T05:17:25;0.50;99.90
52919;DHT22;38793;52.690;6.812;2024-01-07T05:19:50;0.50;99.90
52919;DHT22;38793;52.690;6.812;2024-01-07T05:22:16;0.50;99.90
52919;DHT22;38793;52.690;6.812;2024-01-07T05:24:42;0.50;99.90
52919;DHT22;38793;52.690;6.812;2024-01-07T05:27:08;0.50;99.90
52919;DHT22;38793;52.690;6.812;2024-01-07T05:29:34;0.50;99.90
52919;DHT22;38793;52.690;6.812;2024-01-07T05:32:00;0.40;99.90
52919;DHT22;38793;52.690;6.812;2024-01-07T05:34:27;0.40;99.90
52919;DHT22;38793;52.690;6.812;2024-01-07T05:36:53;0.40;99.90
52919;DHT22;38793;52.690;6.812;2024-01-07T05:39:18;0.40;99.90
52919;DHT22;38793;52.690;6.812;2024-01-07T05:41:44;0.40;99.90
52919;DHT22;38793;52.690;6.812;2024-01-07T05:44:09;0.30;99.90
52919;DHT22;38793;52.690;6.812;2024-01-07T05:46:38;0.40;99.90
52919;DHT22;38793;52.690;6.812;2024-01-07T05:49:05;0.30;99.90
52919;DHT22;38793;52.690;6.812;2024-01-07T05:51:31;0.40;99.90
52919;DHT22;38793;52.690;6.812;2024-01-07T05:53:56;0.40;99.90
52919;DHT22;38793;52.690;6.812;2024-01-07T05:56:22;0.30;99.90
52919;DHT22;38793;52.690;6.812;2024-01-07T05:58:48;0.40;99.90
52919;DHT22;38793;52.690;6.812;2024-01-07T06:01:21;0.30;99.90
52919;DHT22;38793;52.690;6.812;2024-01-07T06:03:47;0.40;99.90
52919;DHT22;38793;52.690;6.812;2024-01-07T06:06:14;0.30;99.90
52919;DHT22;38793;52.690;6.812;2024-01-07T06:08:41;0.30;99.90
52919;DHT22;38793;52.690;6.812;2024-01-07T06:11:07;0.30;99.90
52919;DHT22;38793;52.690;6.812;2024-01-07T06:13:32;0.30;99.90
52919;DHT22;38793;52.690;6.812;2024-01-07T06:15:58;0.30;99.90
52919;DHT22;38793;52.690;6.812;2024-01-07T06:18:23;0.30;99.90
52919;DHT22;38793;52.690;6.812;2024-01-07T06:20:49;0.30;99.90
52919;DHT22;38793;52.690;6.812;2024-01-07T06:23:14;0.30;99.90
52919;DHT22;38793;52.690;6.812;2024-01-07T06:25:40;0.30;99.90
52919;DHT22;38793;52.690;6.812;2024-01-07T06:28:06;0.30;99.90
52919;DHT22;38793;52.690;6.812;2024-01-07T06:30:32;0.30;99.90
52919;DHT22;38793;52.690;6.812;2024-01-07T06:32:57;0.30;99.90
52919;DHT22;38793;52.690;6.812;2024-01-07T06:35:23;0.30;99.90
52919;DHT22;38793;52.690;6.812;2024-01-07T06:37:49;0.30;99.90
52919;DHT22;38793;52.690;6.812;2024-01-07T06:40:15;0.30;99.90
52919;DHT22;38793;52.690;6.812;2024-01-07T06:42:40;0.30;99.90
52919;DHT22;38793;52.690;6.812;2024-01-07T06:45:06;0.30;99.90
52919;DHT22;38793;52.690;6.812;2024-01-07T06:47:32;0.30;99.90
52919;DHT22;38793;52.690;6.812;2024-01-07T06:49:58;0.30;99.90
52919;DHT22;38793;52.690;6.812;2024-01-07T06:52:23;0.30;99.90
52919;DHT22;38793;52.690;6.812;2024-01-07T06:54:49;0.30;99.90
52919;DHT22;38793;52.690;6.812;2024-01-07T06:57:14;0.20;99.90
52919;DHT22;38793;52.690;6.812;2024-01-07T06:59:40;0.30;99.90
52919;DHT22;38793;52.690;6.812;2024-01-07T07:02:06;0.30;99.90
52919;DHT22;38793;52.690;6.812;2024-01-07T07:04:31;0.30;99.90
52919;DHT22;38793;52.690;6.812;2024-01-07T07:06:57;0.30;99.90
52919;DHT22;38793;52.690;6.812;2024-01-07T07:09:23;0.30;99.90
52919;DHT22;38793;52.690;6.812;2024-01-07T07:11:48;0.30;99.90
52919;DHT22;38793;52.690;6.812;2024-01-07T07:14:14;0.30;99.90
52919;DHT22;38793;52.690;6.812;2024-01-07T07:16:40;0.30;99.90
52919;DHT22;38793;52.690;6.812;2024-01-07T07:19:05;0.30;99.90
52919;DHT22;38793;52.690;6.812;2024-01-07T07:21:31;0.30;99.90
52919;DHT22;38793;52.690;6.812;2024-01-07T07:23:57;0.30;99.90
52919;DHT22;38793;52.690;6.812;2024-01-07T07:26:23;0.30;99.90
52919;DHT22;38793;52.690;6.812;2024-01-07T07:28:48;0.30;99.90
52919;DHT22;38793;52.690;6.812;2024-01-07T07:31:14;0.30;99.90
52919;DHT22;38793;52.690;6.812;2024-01-07T07:33:40;0.30;99.90
52919;DHT22;38793;52.690;6.812;2024-01-07T07:36:06;0.30;99.90
52919;DHT22;38793;52.690;6.812;2024-01-07T07:38:32;0.30;99.90
52919;DHT22;38793;52.690;6.812;2024-01-07T07:40:58;0.20;99.90
52919;DHT22;38793;52.690;6.812;2024-01-07T07:43:24;0.30;99.90
52919;DHT22;38793;52.690;6.812;2024-01-07T07:45:50;0.30;99.90
52919;DHT22;38793;52.690;6.812;2024-01-07T07:48:16;0.30;99.90
52919;DHT22;38793;52.690;6.812;2024-01-07T07:50:42;0.20;99.90
52919;DHT22;38793;52.690;6.812;2024-01-07T07:53:08;0.20;99.90
52919;DHT22;38793;52.690;6.812;2024-01-07T07:55:33;0.20;99.90
52919;DHT22;38793;52.690;6.812;2024-01-07T07:57:59;0.10;99.90
52919;DHT22;38793;52.690;6.812;2024-01-07T08:00:25;0.20;99.90
52919;DHT22;38793;52.690;6.812;2024-01-07T08:02:50;0.10;99.90
52919;DHT22;38793;52.690;6.812;2024-01-07T08:05:17;0.10;99.90
52919;DHT22;38793;52.690;6.812;2024-01-07T08:07:42;0.10;99.90
52919;DHT22;38793;52.690;6.812;2024-01-07T08:10:08;0.10;99.90
52919;DHT22;38793;52.690;6.812;2024-01-07T08:12:34;0.10;99.90
52919;DHT22;38793;52.690;6.812;2024-01-07T08:15:00;0.10;99.90
52919;DHT22;38793;52.690;6.812;2024-01-07T08:17:26;0.10;99.90
52919;DHT22;38793;52.690;6.812;2024-01-07T08:19:52;0.10;99.90
52919;DHT22;38793;52.690;6.812;2024-01-07T08:22:18;0.10;99.90
52919;DHT22;38793;52.690;6.812;2024-01-07T08:24:44;0.10;99.90
52919;DHT22;38793;52.690;6.812;2024-01-07T08:27:10;0.10;99.90
52919;DHT22;38793;52.690;6.812;2024-01-07T08:29:36;0.20;99.90
52919;DHT22;38793;52.690;6.812;2024-01-07T08:32:01;0.20;99.90
52919;DHT22;38793;52.690;6.812;2024-01-07T08:34:27;0.30;99.90
52919;DHT22;38793;52.690;6.812;2024-01-07T08:36:52;0.50;99.90
52919;DHT22;38793;52.690;6.812;2024-01-07T08:39:19;0.80;99.90
52919;DHT22;38793;52.690;6.812;2024-01-07T08:41:45;1.20;99.90
52919;DHT22;38793;52.690;6.812;2024-01-07T08:44:11;1.40;99.90
52919;DHT22;38793;52.690;6.812;2024-01-07T08:46:36;1.50;99.90
52919;DHT22;38793;52.690;6.812;2024-01-07T08:49:02;1.50;99.90
52919;DHT22;38793;52.690;6.812;2024-01-07T08:51:28;1.50;99.90
52919;DHT22;38793;52.690;6.812;2024-01-07T08:53:55;1.80;99.90
52919;DHT22;38793;52.690;6.812;2024-01-07T08:56:23;2.50;99.90
52919;DHT22;38793;52.690;6.812;2024-01-07T08:58:48;3.50;99.90
52919;DHT22;38793;52.690;6.812;2024-01-07T09:01:14;4.50;99.90
52919;DHT22;38793;52.690;6.812;2024-01-07T09:03:40;5.40;99.90
52919;DHT22;38793;52.690;6.812;2024-01-07T09:06:07;5.80;99.90
52919;DHT22;38793;52.690;6.812;2024-01-07T09:08:33;5.70;99.90
52919;DHT22;38793;52.690;6.812;2024-01-07T09:11:00;5.60;99.90
52919;DHT22;38793;52.690;6.812;2024-01-07T09:13:27;5.50;99.90
52919;DHT22;38793;52.690;6.812;2024-01-07T09:15:52;5.30;99.90
52919;DHT22;38793;52.690;6.812;2024-01-07T09:18:18;5.00;99.90
52919;DHT22;38793;52.690;6.812;2024-01-07T09:20:44;4.60;99.90
52919;DHT22;38793;52.690;6.812;2024-01-07T09:23:09;4.20;99.90
52919;DHT22;38793;52.690;6.812;2024-01-07T09:25:35;4.00;99.90
52919;DHT22;38793;52.690;6.812;2024-01-07T09:28:00;3.80;99.90
52919;DHT22;38793;52.690;6.812;2024-01-07T09:30:26;3.90;99.90
52919;DHT22;38793;52.690;6.812;2024-01-07T09:32:52;4.30;99.90
52919;DHT22;38793;52.690;6.812;2024-01-07T09:35:17;4.70;99.90
52919;DHT22;38793;52.690;6.812;2024-01-07T09:37:43;5.10;99.90
52919;DHT22;38793;52.690;6.812;2024-01-07T09:40:09;5.30;99.90
52919;DHT22;38793;52.690;6.812;2024-01-07T09:42:35;5.70;99.90
52919;DHT22;38793;52.690;6.812;2024-01-07T09:45:02;6.30;99.90
52919;DHT22;38793;52.690;6.812;2024-01-07T09:47:29;7.20;99.90
52919;DHT22;38793;52.690;6.812;2024-01-07T09:49:55;8.10;99.90
52919;DHT22;38793;52.690;6.812;2024-01-07T09:52:21;8.60;99.80
52919;DHT22;38793;52.690;6.812;2024-01-07T09:54:58;9.30;99.30
52919;DHT22;38793;52.690;6.812;2024-01-07T09:57:25;9.80;98.00
52919;DHT22;38793;52.690;6.812;2024-01-07T09:59:50;10.60;98.60
52919;DHT22;38793;52.690;6.812;2024-01-07T10:02:16;11.30;97.60
52919;DHT22;38793;52.690;6.812;2024-01-07T10:04:42;11.70;95.70
52919;DHT22;38793;52.690;6.812;2024-01-07T10:07:09;11.50;93.40
52919;DHT22;38793;52.690;6.812;2024-01-07T10:09:34;10.80;92.00
52919;DHT22;38793;52.690;6.812;2024-01-07T10:12:00;10.50;93.30
52919;DHT22;38793;52.690;6.812;2024-01-07T10:14:26;10.60;94.30
52919;DHT22;38793;52.690;6.812;2024-01-07T10:16:52;10.90;93.30
52919;DHT22;38793;52.690;6.812;2024-01-07T10:19:21;11.20;92.60
52919;DHT22;38793;52.690;6.812;2024-01-07T10:22:01;11.50;92.40
52919;DHT22;38793;52.690;6.812;2024-01-07T10:24:44;11.60;92.90
52919;DHT22;38793;52.690;6.812;2024-01-07T10:27:10;11.30;90.70
52919;DHT22;38793;52.690;6.812;2024-01-07T10:29:36;10.50;90.70
52919;DHT22;38793;52.690;6.812;2024-01-07T10:32:03;9.70;90.20
52919;DHT22;38793;52.690;6.812;2024-01-07T10:34:31;8.80;90.90
52919;DHT22;38793;52.690;6.812;2024-01-07T10:36:59;7.90;91.30
52919;DHT22;38793;52.690;6.812;2024-01-07T10:39:25;7.20;92.00
52919;DHT22;38793;52.690;6.812;2024-01-07T10:41:52;6.70;92.60
52919;DHT22;38793;52.690;6.812;2024-01-07T10:44:30;6.10;92.90
52919;DHT22;38793;52.690;6.812;2024-01-07T10:46:56;5.60;93.70
52919;DHT22;38793;52.690;6.812;2024-01-07T10:49:26;5.20;94.40
52919;DHT22;38793;52.690;6.812;2024-01-07T10:52:05;4.80;95.30
52919;DHT22;38793;52.690;6.812;2024-01-07T10:54:33;4.40;96.00
52919;DHT22;38793;52.690;6.812;2024-01-07T10:59:45;3.80;97.10
52919;DHT22;38793;52.690;6.812;2024-01-07T11:02:11;3.50;97.40
52919;DHT22;38793;52.690;6.812;2024-01-07T11:05:11;3.30;98.10
52919;DHT22;38793;52.690;6.812;2024-01-07T11:07:46;3.10;98.80
52919;DHT22;38793;52.690;6.812;2024-01-07T11:10:20;3.00;99.80
52919;DHT22;38793;52.690;6.812;2024-01-07T11:12:56;2.90;99.90
52919;DHT22;38793;52.690;6.812;2024-01-07T11:18:17;2.70;99.90
52919;DHT22;38793;52.690;6.812;2024-01-07T11:20:44;2.50;99.90
52919;DHT22;38793;52.690;6.812;2024-01-07T11:23:43;2.50;99.90
52919;DHT22;38793;52.690;6.812;2024-01-07T11:26:08;2.50;99.90
52919;DHT22;38793;52.690;6.812;2024-01-07T11:28:53;2.40;99.90
52919;DHT22;38793;52.690;6.812;2024-01-07T11:31:21;2.40;99.90
52919;DHT22;38793;52.690;6.812;2024-01-07T11:33:50;2.40;99.90
52919;DHT22;38793;52.690;6.812;2024-01-07T11:36:17;2.50;99.90
52919;DHT22;38793;52.690;6.812;2024-01-07T11:38:53;2.50;99.90
52919;DHT22;38793;52.690;6.812;2024-01-07T11:41:20;2.40;99.90
52919;DHT22;38793;52.690;6.812;2024-01-07T11:43:56;2.40;99.90
52919;DHT22;38793;52.690;6.812;2024-01-07T11:46:24;2.30;99.90
52919;DHT22;38793;52.690;6.812;2024-01-07T11:48:53;2.30;99.90
52919;DHT22;38793;52.690;6.812;2024-01-07T11:51:19;2.30;99.90
52919;DHT22;38793;52.690;6.812;2024-01-07T11:53:47;2.30;99.90
52919;DHT22;38793;52.690;6.812;2024-01-07T11:56:13;2.40;99.90
52919;DHT22;38793;52.690;6.812;2024-01-07T11:58:40;2.50;99.90
52919;DHT22;38793;52.690;6.812;2024-01-07T12:01:06;3.00;99.90
52919;DHT22;38793;52.690;6.812;2024-01-07T12:03:32;3.80;99.90
52919;DHT22;38793;52.690;6.812;2024-01-07T12:05:57;4.60;99.90
52919;DHT22;38793;52.690;6.812;2024-01-07T12:08:23;5.40;99.90
52919;DHT22;38793;52.690;6.812;2024-01-07T12:10:49;6.20;99.90
52919;DHT22;38793;52.690;6.812;2024-01-07T12:13:15;7.60;99.90
52919;DHT22;38793;52.690;6.812;2024-01-07T12:15:41;9.40;97.50
52919;DHT22;38793;52.690;6.812;2024-01-07T12:18:07;11.30;96.00
52919;DHT22;38793;52.690;6.812;2024-01-07T12:20:33;13.10;93.70
52919;DHT22;38793;52.690;6.812;2024-01-07T12:23:08;14.80;92.00
52919;DHT22;38793;52.690;6.812;2024-01-07T12:25:34;16.30;88.00
52919;DHT22;38793;52.690;6.812;2024-01-07T12:28:00;17.60;84.10
52919;DHT22;38793;52.690;6.812;2024-01-07T12:30:26;18.20;77.00
52919;DHT22;38793;52.690;6.812;2024-01-07T12:32:52;17.90;74.00
52919;DHT22;38793;52.690;6.812;2024-01-07T12:35:19;17.90;72.00
52919;DHT22;38793;52.690;6.812;2024-01-07T12:37:44;18.10;70.70
52919;DHT22;38793;52.690;6.812;2024-01-07T12:40:11;18.00;71.10
52919;DHT22;38793;52.690;6.812;2024-01-07T12:42:40;18.50;69.50
52919;DHT22;38793;52.690;6.812;2024-01-07T12:45:13;19.10;68.00
52919;DHT22;38793;52.690;6.812;2024-01-07T12:47:40;19.40;63.90
52919;DHT22;38793;52.690;6.812;2024-01-07T12:50:07;19.90;64.90
52919;DHT22;38793;52.690;6.812;2024-01-07T12:52:35;20.70;65.80
52919;DHT22;38793;52.690;6.812;2024-01-07T12:55:01;21.20;64.20
52919;DHT22;38793;52.690;6.812;2024-01-07T12:57:26;21.10;59.20
52919;DHT22;38793;52.690;6.812;2024-01-07T12:59:52;21.10;60.60
52919;DHT22;38793;52.690;6.812;2024-01-07T13:02:18;21.10;59.80
52919;DHT22;38793;52.690;6.812;2024-01-07T13:04:43;20.70;59.00
52919;DHT22;38793;52.690;6.812;2024-01-07T13:07:09;20.60;59.00
52919;DHT22;38793;52.690;6.812;2024-01-07T13:09:35;20.40;59.60
52919;DHT22;38793;52.690;6.812;2024-01-07T13:12:00;20.10;57.60
52919;DHT22;38793;52.690;6.812;2024-01-07T13:14:26;19.80;58.80
52919;DHT22;38793;52.690;6.812;2024-01-07T13:16:52;18.90;59.10
52919;DHT22;38793;52.690;6.812;2024-01-07T13:19:17;17.50;58.20
52919;DHT22;38793;52.690;6.812;2024-01-07T13:21:43;15.90;58.80
52919;DHT22;38793;52.690;6.812;2024-01-07T13:24:10;14.50;59.70
52919;DHT22;38793;52.690;6.812;2024-01-07T13:26:35;13.50;61.20
52919;DHT22;38793;52.690;6.812;2024-01-07T13:29:01;12.90;62.40
52919;DHT22;38793;52.690;6.812;2024-01-07T13:31:26;13.10;63.30
52919;DHT22;38793;52.690;6.812;2024-01-07T13:33:52;14.20;64.40
52919;DHT22;38793;52.690;6.812;2024-01-07T13:36:18;15.30;62.80
52919;DHT22;38793;52.690;6.812;2024-01-07T13:38:43;16.20;61.50
52919;DHT22;38793;52.690;6.812;2024-01-07T13:41:09;16.70;60.40
52919;DHT22;38793;52.690;6.812;2024-01-07T13:43:35;17.10;60.30
52919;DHT22;38793;52.690;6.812;2024-01-07T13:46:02;17.20;59.10
52919;DHT22;38793;52.690;6.812;2024-01-07T13:48:29;17.00;59.00
52919;DHT22;38793;52.690;6.812;2024-01-07T13:50:55;16.80;58.20
52919;DHT22;38793;52.690;6.812;2024-01-07T13:53:20;16.90;59.20
52919;DHT22;38793;52.690;6.812;2024-01-07T13:55:46;16.90;59.70
52919;DHT22;38793;52.690;6.812;2024-01-07T13:58:12;16.40;59.30
52919;DHT22;38793;52.690;6.812;2024-01-07T14:00:37;16.20;60.10
52919;DHT22;38793;52.690;6.812;2024-01-07T14:03:03;16.30;60.00
52919;DHT22;38793;52.690;6.812;2024-01-07T14:05:29;16.20;60.20
52919;DHT22;38793;52.690;6.812;2024-01-07T14:07:55;15.80;60.20
52919;DHT22;38793;52.690;6.812;2024-01-07T14:10:21;14.90;60.10
52919;DHT22;38793;52.690;6.812;2024-01-07T14:12:46;13.80;60.60
52919;DHT22;38793;52.690;6.812;2024-01-07T14:15:12;12.90;61.80
52919;DHT22;38793;52.690;6.812;2024-01-07T14:17:38;12.10;62.80
52919;DHT22;38793;52.690;6.812;2024-01-07T14:20:06;11.60;64.20
52919;DHT22;38793;52.690;6.812;2024-01-07T14:22:33;11.60;64.70
52919;DHT22;38793;52.690;6.812;2024-01-07T14:24:58;11.60;65.00
52919;DHT22;38793;52.690;6.812;2024-01-07T14:27:24;11.50;65.10
52919;DHT22;38793;52.690;6.812;2024-01-07T14:29:50;11.10;65.50
52919;DHT22;38793;52.690;6.812;2024-01-07T14:32:15;10.70;65.40
52919;DHT22;38793;52.690;6.812;2024-01-07T14:34:41;10.00;66.30
52919;DHT22;38793;52.690;6.812;2024-01-07T14:37:10;9.30;67.10
52919;DHT22;38793;52.690;6.812;2024-01-07T14:39:39;8.60;68.00
52919;DHT22;38793;52.690;6.812;2024-01-07T14:42:06;7.90;69.20
52919;DHT22;38793;52.690;6.812;2024-01-07T14:44:31;7.30;70.50
52919;DHT22;38793;52.690;6.812;2024-01-07T14:46:57;6.90;72.10
52919;DHT22;38793;52.690;6.812;2024-01-07T14:49:23;6.50;73.60
52919;DHT22;38793;52.690;6.812;2024-01-07T14:51:49;6.20;74.90
52919;DHT22;38793;52.690;6.812;2024-01-07T14:54:14;5.90;76.20
52919;DHT22;38793;52.690;6.812;2024-01-07T14:56:40;5.50;77.80
52919;DHT22;38793;52.690;6.812;2024-01-07T14:59:05;5.30;79.60
52919;DHT22;38793;52.690;6.812;2024-01-07T15:01:31;5.10;81.70
52919;DHT22;38793;52.690;6.812;2024-01-07T15:03:57;4.80;83.60
52919;DHT22;38793;52.690;6.812;2024-01-07T15:06:23;4.70;85.50
52919;DHT22;38793;52.690;6.812;2024-01-07T15:08:49;4.50;87.30
52919;DHT22;38793;52.690;6.812;2024-01-07T15:11:15;4.40;89.10
52919;DHT22;38793;52.690;6.812;2024-01-07T15:13:42;4.20;90.70
52919;DHT22;38793;52.690;6.812;2024-01-07T15:16:09;4.10;92.10
52919;DHT22;38793;52.690;6.812;2024-01-07T15:18:34;4.00;92.90
52919;DHT22;38793;52.690;6.812;2024-01-07T15:21:00;3.90;93.60
52919;DHT22;38793;52.690;6.812;2024-01-07T15:23:26;3.80;94.40
52919;DHT22;38793;52.690;6.812;2024-01-07T15:25:52;3.70;94.80
52919;DHT22;38793;52.690;6.812;2024-01-07T15:28:18;3.50;95.40
52919;DHT22;38793;52.690;6.812;2024-01-07T15:30:43;3.40;95.80
52919;DHT22;38793;52.690;6.812;2024-01-07T15:33:09;3.30;96.20
52919;DHT22;38793;52.690;6.812;2024-01-07T15:35:34;3.20;97.00
52919;DHT22;38793;52.690;6.812;2024-01-07T15:38:00;3.00;97.60
52919;DHT22;38793;52.690;6.812;2024-01-07T15:40:26;2.90;98.40
52919;DHT22;38793;52.690;6.812;2024-01-07T15:42:52;2.80;99.10